Time;durP1;ratioP1;P1;durP2;ratioP2;P2;SDS_P1;SDS_P2;PMS_P1;PMS_P2;Temp;Humidity;BMP_temperature;BMP_pressure;BME280_temperature;BME280_humidity;BME280_pressure;Samples;Min_cycle;Max_cycle;Signal;HPM_P1;HPM_P2
2023/09/24 00:02:25;;;;;;;;;;;;;;;;;;5072164;28;19923;-75
2023/09/24 00:04:51;;;;;;;;;;;;;;;;;;5070889;28;20437;-76
2023/09/24 00:07:19;;;;;;;;;;;;;;;;;;5072189;28;19916;-75
2023/09/24 00:09:45;;;;;;;;;;;;;;;;;;5071004;28;19948;-75
2023/09/24 00:12:11;;;;;;;;;;;;;;;;;;5071952;28;19970;-74
2023/09/24 00:14:37;;;;;;;;;;;;;;;;;;5070538;28;19912;-75
2023/09/24 00:17:03;;;;;;;;;;;;;;;;;;5068679;28;19951;-77
2023/09/24 00:19:30;;;;;;;;;;;;;;;;;;5059868;28;19909;-75
2023/09/24 00:21:55;;;;;;;;;;;;;;;;;;5070437;28;19908;-76
2023/09/24 00:24:22;;;;;;;;;;;;;;;;;;5072006;28;19916;-76
2023/09/24 00:26:48;;;;;;;;;;;;;;;;;;5072570;28;19916;-76
2023/09/24 00:29:14;;;;;;;;;;;;;;;;;;5070881;28;19908;-76
2023/09/24 00:31:39;;;;;;;;;;;;;;;;;;5097884;22;19920;-72
2023/09/24 00:34:05;;;;;;;;;;;;;;;;;;5056990;28;19924;-74
2023/09/24 00:36:32;;;;;;;;;;;;;;;;;;5061764;28;20287;-74
2023/09/24 00:38:59;;;;;;;;;;;;;;;;;;5061636;28;19909;-73
2023/09/24 00:41:26;;;;;;;;;;;;;;;;;;5060775;28;19920;-74
2023/09/24 00:43:52;;;;;;;;;;;;;;;;;;5044986;28;19916;-76
2023/09/24 00:46:21;;;;;;;;;;;;;;;;;;5043960;28;19909;-75
2023/09/24 00:48:47;;;;;;;;;;;;;;;;;;5052207;28;20287;-75
2023/09/24 00:51:13;;;;;;;;;;;;;;;;;;5040132;28;19999;-74
2023/09/24 00:53:39;;;;;;;;;;;;;;;;;;5046904;28;19912;-75
2023/09/24 00:56:05;;;;;;;;;;;;;;;;;;5047158;28;20527;-73
2023/09/24 00:58:31;;;;;;;;;;;;;;;;;;5047125;28;19909;-76
2023/09/24 01:00:59;;;;;;;;;;;;;;;;;;5044798;28;19909;-77
2023/09/24 01:03:28;;;;;;;;;;;;;;;;;;5043435;28;19936;-77
2023/09/24 01:05:54;;;;;;;;;;;;;;;;;;5045305;28;19919;-77
2023/09/24 01:08:20;;;;;;;;;;;;;;;;;;5040418;28;19995;-77
2023/09/24 01:10:49;;;;;;;;;;;;;;;;;;5044318;28;19909;-75
2023/09/24 01:13:20;;;;;;;;;;;;;;;;;;5045552;28;19917;-74
2023/09/24 01:15:49;;;;;;;;;;;;;;;;;;5044337;28;19932;-74
2023/09/24 01:18:15;;;;;;;;;;;;;;;;;;5047486;28;19909;-75
2023/09/24 01:20:41;;;;;;;;;;;;;;;;;;5040332;28;19920;-75
2023/09/24 01:23:08;;;;;;;;;;;;;;;;;;5051959;28;19909;-74
2023/09/24 01:25:35;;;;;;;;;;;;;;;;;;5043633;28;19920;-75
2023/09/24 01:28:03;;;;;;;;;;;;;;;;;;5043071;28;19936;-74
2023/09/24 01:30:29;;;;;;;;;;;;;;;;;;5052285;28;19999;-76
2023/09/24 01:32:57;;;;;;;;;;;;;;;;;;5047884;28;19960;-74
2023/09/24 01:35:27;;;;;;;;;;;;;;;;;;5050524;28;20375;-75
2023/09/24 01:37:54;;;;;;;;;;;;;;;;;;5049562;28;19910;-76
2023/09/24 01:40:21;;;;;;;;;;;;;;;;;;5046233;28;19971;-76
2023/09/24 01:42:47;;;;;;;;;;;;;;;;;;5044651;28;19991;-75
2023/09/24 01:45:14;;;;;;;;;;;;;;;;;;5042573;28;20345;-74
2023/09/24 01:47:40;;;;;;;;;;;;;;;;;;5042472;28;19913;-75
2023/09/24 01:50:07;;;;;;;;;;;;;;;;;;5046179;28;19909;-75
2023/09/24 01:52:34;;;;;;;;;;;;;;;;;;5045961;28;19955;-75
2023/09/24 01:55:00;;;;;;;;;;;;;;;;;;5044550;28;20295;-75
2023/09/24 01:57:26;;;;;;;;;;;;;;;;;;5042555;28;20004;-75
2023/09/24 01:59:52;;;;;;;;;;;;;;;;;;5043993;28;19982;-76
2023/09/24 02:02:18;;;;;;;;;;;;;;;;;;5044455;28;20285;-76
2023/09/24 02:04:44;;;;;;;;;;;;;;;;;;5046668;28;20414;-76
2023/09/24 02:07:12;;;;;;;;;;;;;;;;;;5041593;28;19919;-75
2023/09/24 02:09:38;;;;;;;;;;;;;;;;;;5046762;28;19913;-76
2023/09/24 02:12:04;;;;;;;;;;;;;;;;;;5049774;28;20012;-76
2023/09/24 02:14:29;;;;;;;;;;;;;;;;;;5051042;28;20015;-76
2023/09/24 02:16:55;;;;;;;;;;;;;;;;;;5052468;28;19942;-76
2023/09/24 02:19:24;;;;;;;;;;;;;;;;;;5048048;28;19909;-75
2023/09/24 02:21:50;;;;;;;;;;;;;;;;;;5038351;28;19913;-76
2023/09/24 02:24:17;;;;;;;;;;;;;;;;;;5043629;28;20288;-75
2023/09/24 02:26:42;;;;;;;;;;;;;;;;;;5045003;28;19909;-76
2023/09/24 02:29:09;;;;;;;;;;;;;;;;;;5041787;28;19920;-75
2023/09/24 02:31:35;;;;;;;;;;;;;;;;;;5041561;28;20504;-75
2023/09/24 02:34:01;;;;;;;;;;;;;;;;;;5044201;28;19967;-77
2023/09/24 02:36:27;;;;;;;;;;;;;;;;;;5040559;28;20362;-75
2023/09/24 02:38:53;;;;;;;;;;;;;;;;;;5041976;28;20030;-74
2023/09/24 02:41:19;;;;;;;;;;;;;;;;;;5041739;28;20050;-73
2023/09/24 02:43:45;;;;;;;;;;;;;;;;;;5041491;28;20364;-76
2023/09/24 02:46:11;;;;;;;;;;;;;;;;;;5047252;28;19916;-76
2023/09/24 02:48:39;;;;;;;;;;;;;;;;;;5041834;28;19913;-76
2023/09/24 02:51:05;;;;;;;;;;;;;;;;;;5042127;28;19916;-76
2023/09/24 03:01:11;;;;;;;;;;;;;;;;;;5060631;28;19925;-75
2023/09/24 03:03:37;;;;;;;;;;;;;;;;;;5068675;28;19908;-74
2023/09/24 03:06:03;;;;;;;;;;;;;;;;;;5072969;28;19908;-74
2023/09/24 03:08:29;;;;;;;;;;;;;;;;;;5072603;28;20053;-74
2023/09/24 03:10:55;;;;;;;;;;;;;;;;;;5072439;28;19912;-74
2023/09/24 03:13:21;;;;;;;;;;;;;;;;;;5072266;28;19916;-74
2023/09/24 03:15:48;;;;;;;;;;;;;;;;;;5054489;28;20372;-74
2023/09/24 03:18:14;;;;;;;;;;;;;;;;;;5072458;28;19909;-75
2023/09/24 03:20:40;;;;;;;;;;;;;;;;;;5072216;28;20080;-74
2023/09/24 03:23:09;;;;;;;;;;;;;;;;;;5050817;28;19939;-75
2023/09/24 03:25:35;;;;;;;;;;;;;;;;;;5068047;28;19944;-75
2023/09/24 03:28:01;;;;;;;;;;;;;;;;;;5063978;28;19959;-75
2023/09/24 03:30:27;;;;;;;;;;;;;;;;;;5072157;28;19961;-75
2023/09/24 03:32:53;;;;;;;;;;;;;;;;;;5072352;28;19932;-75
2023/09/24 03:35:19;;;;;;;;;;;;;;;;;;5067445;28;19909;-75
2023/09/24 03:37:45;;;;;;;;;;;;;;;;;;5069720;28;19917;-75
2023/09/24 03:40:12;;;;;;;;;;;;;;;;;;5063748;28;19909;-75
2023/09/24 03:42:38;;;;;;;;;;;;;;;;;;5072040;28;19987;-77
2023/09/24 03:45:04;;;;;;;;;;;;;;;;;;5063846;28;20264;-74
2023/09/24 03:47:30;;;;;;;;;;;;;;;;;;5072122;28;19912;-75
2023/09/24 03:49:56;;;;;;;;;;;;;;;;;;5072038;28;19920;-73
2023/09/24 03:52:22;;;;;;;;;;;;;;;;;;5072603;28;20324;-72
2023/09/24 03:54:48;;;;;;;;;;;;;;;;;;5072397;28;19912;-74
2023/09/24 03:57:14;;;;;;;;;;;;;;;;;;5072315;28;19908;-74
2023/09/24 03:59:40;;;;;;;;;;;;;;;;;;5071833;28;19916;-73
2023/09/24 04:02:07;;;;;;;;;;;;;;;;;;5063443;28;20315;-73
2023/09/24 04:04:37;;;;;;;;;;;;;;;;;;5071384;28;19916;-73
2023/09/24 04:07:03;;;;;;;;;;;;;;;;;;5072401;28;19919;-74
2023/09/24 04:09:33;;;;;;;;;;;;;;;;;;5072048;28;19908;-73
2023/09/24 04:11:59;;;;;;;;;;;;;;;;;;5071723;28;19908;-72
2023/09/24 04:14:25;;;;;;;;;;;;;;;;;;5071302;28;19916;-74
2023/09/24 04:16:50;;;;;;;;;;;;;;;;;;5071505;28;19916;-73
2023/09/24 04:19:17;;;;;;;;;;;;;;;;;;5071794;28;19908;-74
2023/09/24 04:21:45;;;;;;;;;;;;;;;;;;5070449;28;19943;-72
2023/09/24 04:24:11;;;;;;;;;;;;;;;;;;5045187;28;20360;-75
2023/09/24 04:26:37;;;;;;;;;;;;;;;;;;5068810;28;19916;-75
2023/09/24 04:29:03;;;;;;;;;;;;;;;;;;5063268;28;19919;-75
2023/09/24 04:31:29;;;;;;;;;;;;;;;;;;5062124;28;19909;-76
2023/09/24 04:33:55;;;;;;;;;;;;;;;;;;5069824;28;19999;-76
2023/09/24 04:36:21;;;;;;;;;;;;;;;;;;5068994;28;20431;-75
2023/09/24 04:38:47;;;;;;;;;;;;;;;;;;5070769;28;19908;-75
2023/09/24 04:41:15;;;;;;;;;;;;;;;;;;5070323;28;19908;-74
2023/09/24 04:43:41;;;;;;;;;;;;;;;;;;5070286;28;20507;-73
2023/09/24 04:46:08;;;;;;;;;;;;;;;;;;5069294;28;19951;-73
2023/09/24 04:48:35;;;;;;;;;;;;;;;;;;5053476;28;19951;-72
2023/09/24 04:51:01;;;;;;;;;;;;;;;;;;5071360;28;19936;-74
2023/09/24 04:53:27;;;;;;;;;;;;;;;;;;5071022;28;19913;-74
2023/09/24 04:55:53;;;;;;;;;;;;;;;;;;5071427;28;19909;-72
2023/09/24 04:58:18;;;;;;;;;;;;;;;;;;5071380;28;19915;-73
2023/09/24 05:00:44;;;;;;;;;;;;;;;;;;5062851;28;19920;-73
2023/09/24 05:03:10;;;;;;;;;;;;;;;;;;5071420;28;20425;-75
2023/09/24 05:05:36;;;;;;;;;;;;;;;;;;5063894;28;19913;-74
2023/09/24 05:08:02;;;;;;;;;;;;;;;;;;5070712;28;19920;-75
2023/09/24 05:10:28;;;;;;;;;;;;;;;;;;5061495;28;19909;-71
2023/09/24 05:12:54;;;;;;;;;;;;;;;;;;5070667;28;19916;-70
2023/09/24 05:15:20;;;;;;;;;;;;;;;;;;5070821;28;19930;-70
2023/09/24 05:17:46;;;;;;;;;;;;;;;;;;5072990;28;19997;-71
2023/09/24 05:20:15;;;;;;;;;;;;;;;;;;5074655;28;19954;-70
2023/09/24 05:22:41;;;;;;;;;;;;;;;;;;5074738;28;19940;-70
2023/09/24 05:25:07;;;;;;;;;;;;;;;;;;5075347;28;19908;-71
2023/09/24 05:27:34;;;;;;;;;;;;;;;;;;5074469;28;19919;-70
2023/09/24 05:30:00;;;;;;;;;;;;;;;;;;5074206;28;20367;-69
2023/09/24 05:32:26;;;;;;;;;;;;;;;;;;5073979;28;20256;-70
2023/09/24 05:34:52;;;;;;;;;;;;;;;;;;5073765;28;19915;-70
2023/09/24 05:37:18;;;;;;;;;;;;;;;;;;5056331;28;19908;-71
2023/09/24 05:39:44;;;;;;;;;;;;;;;;;;5056214;28;19957;-72
2023/09/24 05:42:10;;;;;;;;;;;;;;;;;;5073946;28;19908;-71
2023/09/24 05:44:36;;;;;;;;;;;;;;;;;;5047932;28;19920;-71
2023/09/24 05:47:06;;;;;;;;;;;;;;;;;;5074128;28;19908;-71
2023/09/24 05:49:32;;;;;;;;;;;;;;;;;;5074127;28;19909;-71
2023/09/24 05:51:58;;;;;;;;;;;;;;;;;;5065533;28;20504;-71
2023/09/24 05:54:24;;;;;;;;;;;;;;;;;;5073706;28;19917;-72
2023/09/24 05:56:50;;;;;;;;;;;;;;;;;;5073676;28;19908;-72
2023/09/24 05:59:19;;;;;;;;;;;;;;;;;;5073678;28;19955;-71
2023/09/24 06:01:45;;;;;;;;;;;;;;;;;;5073672;28;19908;-71
2023/09/24 06:04:10;;;;;;;;;;;;;;;;;;5073834;28;19932;-71
2023/09/24 06:06:37;;;;;;;;;;;;;;;;;;5065399;28;19909;-71
2023/09/24 06:09:03;;;;;;;;;;;;;;;;;;5073508;28;19920;-71
2023/09/24 06:11:29;;;;;;;;;;;;;;;;;;5073517;28;19955;-71
2023/09/24 06:13:54;;;;;;;;;;;;;;;;;;5073322;28;20342;-72
2023/09/24 06:16:20;;;;;;;;;;;;;;;;;;5065896;28;20256;-71
2023/09/24 06:18:46;;;;;;;;;;;;;;;;;;5073740;28;19936;-72
2023/09/24 06:21:12;;;;;;;;;;;;;;;;;;5073377;28;19944;-71
2023/09/24 06:23:38;;;;;;;;;;;;;;;;;;5072991;28;19917;-71
2023/09/24 06:26:04;;;;;;;;;;;;;;;;;;5072999;28;19909;-71
2023/09/24 06:28:30;;;;;;;;;;;;;;;;;;5073268;28;20299;-71
2023/09/24 06:30:56;;;;;;;;;;;;;;;;;;5073018;28;20376;-73
2023/09/24 06:33:23;;;;;;;;;;;;;;;;;;5081816;22;20665;-72
2023/09/24 06:35:49;;;;;;;;;;;;;;;;;;5071403;28;19915;-71
2023/09/24 06:38:15;;;;;;;;;;;;;;;;;;5061611;28;19935;-71
2023/09/24 06:40:41;;;;;;;;;;;;;;;;;;5073104;28;19915;-72
2023/09/24 06:43:07;;;;;;;;;;;;;;;;;;5058306;28;20283;-72
2023/09/24 06:45:33;;;;;;;;;;;;;;;;;;5062692;28;19916;-72
2023/09/24 06:48:01;;;;;;;;;;;;;;;;;;5065067;28;19916;-72
2023/09/24 06:50:27;;;;;;;;;;;;;;;;;;5058782;28;20003;-72
2023/09/24 06:52:53;;;;;;;;;;;;;;;;;;5062644;28;19963;-72
2023/09/24 06:55:19;;;;;;;;;;;;;;;;;;5055471;28;19913;-72
2023/09/24 06:57:45;;;;;;;;;;;;;;;;;;5066641;28;19913;-71
2023/09/24 07:00:11;;;;;;;;;;;;;;;;;;5056062;28;19963;-71
2023/09/24 07:02:36;;;;;;;;;;;;;;;;;;5068111;28;20440;-71
2023/09/24 07:05:04;;;;;;;;;;;;;;;;;;5060391;28;20039;-71
2023/09/24 07:07:30;;;;;;;;;;;;;;;;;;5060538;28;19913;-72
2023/09/24 07:09:58;;;;;;;;;;;;;;;;;;5059806;28;19915;-72
2023/09/24 07:12:24;;;;;;;;;;;;;;;;;;5056102;28;19917;-73
2023/09/24 07:14:50;;;;;;;;;;;;;;;;;;5060489;28;19909;-72
2023/09/24 07:17:16;;;;;;;;;;;;;;;;;;5062703;28;20356;-73
2023/09/24 07:19:42;;;;;;;;;;;;;;;;;;5066940;28;20371;-73
2023/09/24 07:22:08;;;;;;;;;;;;;;;;;;5055305;28;19909;-73
2023/09/24 07:24:34;;;;;;;;;;;;;;;;;;5056418;28;19954;-73
2023/09/24 07:27:02;;;;;;;;;;;;;;;;;;5064387;28;19915;-74
2023/09/24 07:29:28;;;;;;;;;;;;;;;;;;5063841;28;19987;-73
2023/09/24 07:31:54;;;;;;;;;;;;;;;;;;5056812;28;19959;-73
2023/09/24 07:34:20;;;;;;;;;;;;;;;;;;5067851;28;19916;-73
2023/09/24 07:36:46;;;;;;;;;;;;;;;;;;5066725;28;19932;-73
2023/09/24 07:39:12;;;;;;;;;;;;;;;;;;5066747;28;19909;-73
2023/09/24 07:41:38;;;;;;;;;;;;;;;;;;5059044;28;19913;-74
2023/09/24 07:44:04;;;;;;;;;;;;;;;;;;5054519;28;20516;-73
2023/09/24 07:46:30;;;;;;;;;;;;;;;;;;5068652;28;20024;-72
2023/09/24 07:48:55;;;;;;;;;;;;;;;;;;5055098;28;20003;-72
2023/09/24 07:51:22;;;;;;;;;;;;;;;;;;5066129;28;19914;-72
2023/09/24 07:53:50;;;;;;;;;;;;;;;;;;5068602;28;19908;-72
2023/09/24 07:56:15;;;;;;;;;;;;;;;;;;5056288;28;19909;-72
2023/09/24 07:58:44;;;;;;;;;;;;;;;;;;5060068;28;19955;-72
2023/09/24 08:01:10;;;;;;;;;;;;;;;;;;5057653;28;19995;-73
2023/09/24 08:03:36;;;;;;;;;;;;;;;;;;5069350;22;19971;-74
2023/09/24 08:06:02;;;;;;;;;;;;;;;;;;5070605;28;19920;-73
2023/09/24 08:08:28;;;;;;;;;;;;;;;;;;5059088;28;19917;-73
2023/09/24 08:10:54;;;;;;;;;;;;;;;;;;5069990;28;19916;-71
2023/09/24 08:13:20;;;;;;;;;;;;;;;;;;5056903;28;19940;-71
2023/09/24 08:15:46;;;;;;;;;;;;;;;;;;5053985;28;19943;-72
2023/09/24 08:18:12;;;;;;;;;;;;;;;;;;5068045;28;19976;-72
2023/09/24 08:20:38;;;;;;;;;;;;;;;;;;5056705;28;19917;-72
2023/09/24 08:23:04;;;;;;;;;;;;;;;;;;5061793;28;19916;-72
2023/09/24 08:25:30;;;;;;;;;;;;;;;;;;5061911;28;19916;-72
2023/09/24 08:27:57;;;;;;;;;;;;;;;;;;5055540;28;20346;-72
2023/09/24 08:30:23;;;;;;;;;;;;;;;;;;5067801;28;20375;-73
2023/09/24 08:32:49;;;;;;;;;;;;;;;;;;5058017;28;19909;-74
2023/09/24 08:35:15;;;;;;;;;;;;;;;;;;5065996;28;20411;-73
2023/09/24 08:37:41;;;;;;;;;;;;;;;;;;5068249;28;19940;-73
2023/09/24 08:40:07;;;;;;;;;;;;;;;;;;5063941;28;19916;-73
2023/09/24 08:42:33;;;;;;;;;;;;;;;;;;5055162;28;20371;-72
2023/09/24 08:44:59;;;;;;;;;;;;;;;;;;5061938;28;20387;-73
2023/09/24 08:47:25;;;;;;;;;;;;;;;;;;5060732;28;19920;-73
2023/09/24 08:49:51;;;;;;;;;;;;;;;;;;5061564;28;19909;-73
2023/09/24 08:52:17;;;;;;;;;;;;;;;;;;5065262;28;19974;-73
2023/09/24 08:54:43;;;;;;;;;;;;;;;;;;5057939;28;19917;-73
2023/09/24 08:57:09;;;;;;;;;;;;;;;;;;5063944;28;20329;-73
2023/09/24 08:59:35;;;;;;;;;;;;;;;;;;5062413;28;19962;-73
2023/09/24 09:02:01;;;;;;;;;;;;;;;;;;5071004;28;19991;-74
2023/09/24 09:04:27;;;;;;;;;;;;;;;;;;5057874;28;19971;-74
2023/09/24 09:06:55;;;;;;;;;;;;;;;;;;5066598;28;19909;-74
2023/09/24 09:09:21;;;;;;;;;;;;;;;;;;5065311;28;19957;-74
2023/09/24 09:11:46;;;;;;;;;;;;;;;;;;5060366;28;19917;-74
2023/09/24 09:14:13;;;;;;;;;;;;;;;;;;5070854;28;20226;-73
2023/09/24 09:16:39;;;;;;;;;;;;;;;;;;5059461;28;20376;-75
2023/09/24 09:19:05;;;;;;;;;;;;;;;;;;5064688;28;19942;-74
2023/09/24 09:21:31;;;;;;;;;;;;;;;;;;5066439;28;19916;-74
2023/09/24 09:23:57;;;;;;;;;;;;;;;;;;5068560;28;19918;-74
2023/09/24 09:26:23;;;;;;;;;;;;;;;;;;5057834;28;19913;-74
2023/09/24 09:28:48;;;;;;;;;;;;;;;;;;5068074;28;19935;-73
2023/09/24 09:31:14;;;;;;;;;;;;;;;;;;5064106;28;19914;-74
2023/09/24 09:33:41;;;;;;;;;;;;;;;;;;5060652;28;19909;-74
2023/09/24 09:36:07;;;;;;;;;;;;;;;;;;5070593;28;20383;-73
2023/09/24 09:38:33;;;;;;;;;;;;;;;;;;5058244;28;19962;-74
2023/09/24 09:40:59;;;;;;;;;;;;;;;;;;5074104;28;19917;-73
2023/09/24 09:43:25;;;;;;;;;;;;;;;;;;5062463;28;19909;-73
2023/09/24 09:45:51;;;;;;;;;;;;;;;;;;5056676;28;19987;-73
2023/09/24 09:48:17;;;;;;;;;;;;;;;;;;5070435;28;19916;-73
2023/09/24 09:50:43;;;;;;;;;;;;;;;;;;5062028;28;20352;-73
2023/09/24 09:53:09;;;;;;;;;;;;;;;;;;5069697;28;19915;-73
2023/09/24 09:55:35;;;;;;;;;;;;;;;;;;5061172;28;19913;-74
2023/09/24 09:58:02;;;;;;;;;;;;;;;;;;5070051;28;19908;-73
2023/09/24 10:00:27;;;;;;;;;;;;;;;;;;5057044;28;19913;-73
2023/09/24 10:02:56;;;;;;;;;;;;;;;;;;5062409;28;19975;-73
2023/09/24 10:05:22;;;;;;;;;;;;;;;;;;5061414;28;19916;-74
2023/09/24 10:07:48;;;;;;;;;;;;;;;;;;5058417;28;19920;-74
2023/09/24 10:10:14;;;;;;;;;;;;;;;;;;5071052;28;19916;-73
2023/09/24 10:12:41;;;;;;;;;;;;;;;;;;5058773;28;19954;-73
2023/09/24 10:15:07;;;;;;;;;;;;;;;;;;5063278;28;19920;-73
2023/09/24 10:17:33;;;;;;;;;;;;;;;;;;5064863;28;19909;-73
2023/09/24 10:20:06;;;;;;;;;;;;;;;;;;5057963;28;19913;-74
2023/09/24 10:22:40;;;;;;;;;;;;;;;;;;5057491;28;19912;-74
2023/09/24 10:25:06;;;;;;;;;;;;;;;;;;5063319;28;19909;-74
2023/09/24 10:27:32;;;;;;;;;;;;;;;;;;5056081;28;19913;-74
2023/09/24 10:29:58;;;;;;;;;;;;;;;;;;5068873;28;19950;-73
2023/09/24 10:32:25;;;;;;;;;;;;;;;;;;5056524;28;19948;-73
2023/09/24 10:34:51;;;;;;;;;;;;;;;;;;5065824;28;19916;-73
2023/09/24 10:37:18;;;;;;;;;;;;;;;;;;5063460;28;19908;-73
2023/09/24 10:39:44;;;;;;;;;;;;;;;;;;5059794;28;19916;-74
2023/09/24 10:42:10;;;;;;;;;;;;;;;;;;5069859;28;19908;-73
2023/09/24 10:44:36;;;;;;;;;;;;;;;;;;5057184;28;20405;-73
2023/09/24 10:47:04;;;;;;;;;;;;;;;;;;5065057;28;19909;-74
2023/09/24 10:49:30;;;;;;;;;;;;;;;;;;5063198;28;20065;-74
2023/09/24 10:51:56;;;;;;;;;;;;;;;;;;5057876;28;19978;-74
2023/09/24 10:54:22;;;;;;;;;;;;;;;;;;5067883;28;19909;-75
2023/09/24 10:56:48;;;;;;;;;;;;;;;;;;5058867;28;19908;-74
2023/09/24 10:59:14;;;;;;;;;;;;;;;;;;5063139;28;20525;-73
2023/09/24 11:01:40;;;;;;;;;;;;;;;;;;5065937;28;19960;-74
2023/09/24 11:04:06;;;;;;;;;;;;;;;;;;5055377;28;19923;-74
2023/09/24 11:06:32;;;;;;;;;;;;;;;;;;5068590;28;20311;-75
2023/09/24 11:08:58;;;;;;;;;;;;;;;;;;5059633;28;19919;-72
2023/09/24 11:11:24;;;;;;;;;;;;;;;;;;5069821;28;19909;-73
2023/09/24 11:13:50;;;;;;;;;;;;;;;;;;5057205;28;20323;-73
2023/09/24 11:16:16;;;;;;;;;;;;;;;;;;5067036;28;19908;-73
2023/09/24 11:18:42;;;;;;;;;;;;;;;;;;5057389;28;20324;-74
2023/09/24 11:21:08;;;;;;;;;;;;;;;;;;5062077;28;19916;-72
2023/09/24 11:23:34;;;;;;;;;;;;;;;;;;5054742;28;19909;-73
2023/09/24 11:26:00;;;;;;;;;;;;;;;;;;5068034;28;19912;-73
2023/09/24 11:28:25;;;;;;;;;;;;;;;;;;5055441;28;19912;-73
2023/09/24 11:30:51;;;;;;;;;;;;;;;;;;5065341;28;20000;-73
2023/09/24 11:33:17;;;;;;;;;;;;;;;;;;5057091;28;20387;-73
2023/09/24 11:35:44;;;;;;;;;;;;;;;;;;5065661;28;19916;-73
2023/09/24 11:38:10;;;;;;;;;;;;;;;;;;5062601;28;19915;-71
2023/09/24 11:40:36;;;;;;;;;;;;;;;;;;5059827;28;19909;-71
2023/09/24 11:43:02;;;;;;;;;;;;;;;;;;5051108;28;20303;-72
2023/09/24 11:45:27;;;;;;;;;;;;;;;;;;5050863;28;20346;-71
2023/09/24 11:47:53;;;;;;;;;;;;;;;;;;5049650;28;20012;-72
2023/09/24 11:50:19;;;;;;;;;;;;;;;;;;5052245;28;19913;-72
2023/09/24 11:52:45;;;;;;;;;;;;;;;;;;5052265;28;19909;-73
2023/09/24 11:55:11;;;;;;;;;;;;;;;;;;5052001;28;19916;-71
2023/09/24 11:57:37;;;;;;;;;;;;;;;;;;5052152;28;19908;-71
2023/09/24 12:00:04;;;;;;;;;;;;;;;;;;5051945;28;20265;-71
2023/09/24 12:02:29;;;;;;;;;;;;;;;;;;5051962;28;19942;-73
2023/09/24 12:04:55;;;;;;;;;;;;;;;;;;5051732;28;19982;-72
2023/09/24 12:07:21;;;;;;;;;;;;;;;;;;5052191;28;19905;-72
2023/09/24 12:09:47;;;;;;;;;;;;;;;;;;5061925;28;19919;-71
2023/09/24 12:12:13;;;;;;;;;;;;;;;;;;5071867;28;19942;-71
2023/09/24 12:14:39;;;;;;;;;;;;;;;;;;5071595;28;20399;-72
2023/09/24 12:17:05;;;;;;;;;;;;;;;;;;5071610;28;19908;-71
2023/09/24 12:19:31;;;;;;;;;;;;;;;;;;5071816;28;19909;-72
2023/09/24 12:21:57;;;;;;;;;;;;;;;;;;5072109;28;19912;-71
2023/09/24 12:24:23;;;;;;;;;;;;;;;;;;5071303;28;19970;-72
2023/09/24 12:26:49;;;;;;;;;;;;;;;;;;5074487;28;19908;-72
2023/09/24 12:29:15;;;;;;;;;;;;;;;;;;5075693;28;19959;-72
2023/09/24 12:31:41;;;;;;;;;;;;;;;;;;5074082;28;19909;-72
2023/09/24 12:34:06;;;;;;;;;;;;;;;;;;5097614;22;20159;-66
2023/09/24 12:36:32;;;;;;;;;;;;;;;;;;5075963;28;19991;-70
2023/09/24 12:38:58;;;;;;;;;;;;;;;;;;5075997;28;19939;-70
2023/09/24 12:41:24;;;;;;;;;;;;;;;;;;5076351;28;20427;-70
2023/09/24 12:43:53;;;;;;;;;;;;;;;;;;5073919;28;19940;-68
2023/09/24 12:46:19;;;;;;;;;;;;;;;;;;5075335;28;20368;-69
2023/09/24 12:48:45;;;;;;;;;;;;;;;;;;5075144;28;19917;-68
2023/09/24 12:51:11;;;;;;;;;;;;;;;;;;5075464;28;20399;-69
2023/09/24 12:53:37;;;;;;;;;;;;;;;;;;5075053;28;19911;-69
2023/09/24 12:56:03;;;;;;;;;;;;;;;;;;5074218;28;19959;-69
2023/09/24 12:58:29;;;;;;;;;;;;;;;;;;5074088;28;20003;-69
2023/09/24 13:00:55;;;;;;;;;;;;;;;;;;5075515;28;19995;-69
2023/09/24 13:03:20;;;;;;;;;;;;;;;;;;5075127;28;19905;-69
2023/09/24 13:05:47;;;;;;;;;;;;;;;;;;5075567;28;20318;-69
2023/09/24 13:08:13;;;;;;;;;;;;;;;;;;5076734;28;19914;-70
2023/09/24 13:10:39;;;;;;;;;;;;;;;;;;5077534;28;19931;-70
2023/09/24 13:13:05;;;;;;;;;;;;;;;;;;5076539;28;19915;-71
2023/09/24 13:15:31;;;;;;;;;;;;;;;;;;5076245;28;19940;-70
2023/09/24 13:17:57;;;;;;;;;;;;;;;;;;5075039;28;19916;-70
2023/09/24 13:20:23;;;;;;;;;;;;;;;;;;5074800;28;20291;-70
2023/09/24 13:22:49;;;;;;;;;;;;;;;;;;5074864;28;19912;-70
2023/09/24 13:25:15;;;;;;;;;;;;;;;;;;5074471;28;20422;-69
2023/09/24 13:27:41;;;;;;;;;;;;;;;;;;5074556;28;19957;-70
2023/09/24 13:30:08;;;;;;;;;;;;;;;;;;5073264;28;19995;-69
2023/09/24 13:32:35;;;;;;;;;;;;;;;;;;5074370;28;20570;-70
2023/09/24 13:35:03;;;;;;;;;;;;;;;;;;5072624;28;20402;-68
2023/09/24 13:37:29;;;;;;;;;;;;;;;;;;5073640;28;19920;-70
2023/09/24 13:39:55;;;;;;;;;;;;;;;;;;5074373;28;19908;-69
2023/09/24 13:42:21;;;;;;;;;;;;;;;;;;5074235;28;19928;-69
2023/09/24 13:44:47;;;;;;;;;;;;;;;;;;5074013;28;19913;-69
2023/09/24 13:47:15;;;;;;;;;;;;;;;;;;5074063;28;20001;-69
2023/09/24 13:49:41;;;;;;;;;;;;;;;;;;5074218;28;19959;-68
2023/09/24 13:52:07;;;;;;;;;;;;;;;;;;5074275;28;19908;-68
2023/09/24 13:54:32;;;;;;;;;;;;;;;;;;5073266;28;19943;-68
2023/09/24 13:56:59;;;;;;;;;;;;;;;;;;5074185;28;20434;-68
2023/09/24 13:59:25;;;;;;;;;;;;;;;;;;5076146;28;20059;-68
2023/09/24 14:01:51;;;;;;;;;;;;;;;;;;5075792;28;19912;-68
2023/09/24 14:04:17;;;;;;;;;;;;;;;;;;5073937;28;19913;-68
2023/09/24 14:06:44;;;;;;;;;;;;;;;;;;5073198;28;19919;-68
2023/09/24 14:14:39;;;;;;;;;;;;;;;;;;5073433;28;20350;-67
2023/09/24 14:17:05;;;;;;;;;;;;;;;;;;5073917;28;19912;-68
2023/09/24 14:19:31;;;;;;;;;;;;;;;;;;5073635;28;19930;-67
2023/09/24 14:21:57;;;;;;;;;;;;;;;;;;5073594;28;20289;-69
2023/09/24 14:24:23;;;;;;;;;;;;;;;;;;5073234;28;19908;-68
2023/09/24 14:26:49;;;;;;;;;;;;;;;;;;5073478;28;19923;-67
2023/09/24 14:29:15;;;;;;;;;;;;;;;;;;5073392;28;19919;-69
2023/09/24 14:31:43;;;;;;;;;;;;;;;;;;5072863;28;20311;-68
2023/09/24 14:34:09;;;;;;;;;;;;;;;;;;5072940;28;19954;-68
2023/09/24 14:36:34;;;;;;;;;;;;;;;;;;5073110;28;20252;-68
2023/09/24 14:39:03;;;;;;;;;;;;;;;;;;5073317;28;19966;-68
2023/09/24 14:41:29;;;;;;;;;;;;;;;;;;5072895;28;19912;-69
2023/09/24 14:43:55;;;;;;;;;;;;;;;;;;5072896;28;20337;-70
2023/09/24 14:46:21;;;;;;;;;;;;;;;;;;5073158;28;19935;-69
2023/09/24 14:48:47;;;;;;;;;;;;;;;;;;5072485;28;19912;-68
2023/09/24 14:51:13;;;;;;;;;;;;;;;;;;5072518;28;19958;-69
2023/09/24 14:53:42;;;;;;;;;;;;;;;;;;5072804;28;19912;-69
2023/09/24 14:56:08;;;;;;;;;;;;;;;;;;5071517;28;20367;-68
2023/09/24 14:58:34;;;;;;;;;;;;;;;;;;5072857;28;19908;-68
2023/09/24 15:01:00;;;;;;;;;;;;;;;;;;5072728;28;19913;-68
2023/09/24 15:03:25;;;;;;;;;;;;;;;;;;5072395;28;20296;-68
2023/09/24 15:05:52;;;;;;;;;;;;;;;;;;5072710;28;19916;-69
2023/09/24 15:08:17;;;;;;;;;;;;;;;;;;5072557;28;19913;-69
2023/09/24 15:10:43;;;;;;;;;;;;;;;;;;5071215;28;19916;-68
2023/09/24 15:13:09;;;;;;;;;;;;;;;;;;5072664;28;20291;-69
2023/09/24 15:15:35;;;;;;;;;;;;;;;;;;5072610;28;19930;-68
2023/09/24 15:18:01;;;;;;;;;;;;;;;;;;5072537;28;19905;-71
2023/09/24 15:20:28;;;;;;;;;;;;;;;;;;5072761;28;20007;-69
2023/09/24 15:22:54;;;;;;;;;;;;;;;;;;5072719;28;19926;-69
2023/09/24 15:25:20;;;;;;;;;;;;;;;;;;5072352;28;20518;-70
2023/09/24 15:27:46;;;;;;;;;;;;;;;;;;5072608;28;19913;-68
2023/09/24 15:30:11;;;;;;;;;;;;;;;;;;5071096;28;19974;-70
2023/09/24 15:32:37;;;;;;;;;;;;;;;;;;5072560;28;20004;-69
2023/09/24 15:35:03;;;;;;;;;;;;;;;;;;5071932;28;19928;-69
2023/09/24 15:37:29;;;;;;;;;;;;;;;;;;5072063;28;19919;-68
2023/09/24 15:39:55;;;;;;;;;;;;;;;;;;5072297;28;19908;-68
2023/09/24 15:42:21;;;;;;;;;;;;;;;;;;5072578;28;19915;-68
2023/09/24 15:44:47;;;;;;;;;;;;;;;;;;5073357;28;20057;-69
2023/09/24 15:47:13;;;;;;;;;;;;;;;;;;5073755;28;19954;-69
2023/09/24 15:49:39;;;;;;;;;;;;;;;;;;5073235;28;19939;-70
2023/09/24 15:52:05;;;;;;;;;;;;;;;;;;5071703;28;20486;-69
2023/09/24 15:54:31;;;;;;;;;;;;;;;;;;5071708;28;20430;-68
2023/09/24 15:56:58;;;;;;;;;;;;;;;;;;5072156;28;19915;-69
2023/09/24 15:59:24;;;;;;;;;;;;;;;;;;5071762;28;20291;-68
2023/09/24 16:01:49;;;;;;;;;;;;;;;;;;5071547;28;19913;-69
2023/09/24 16:04:16;;;;;;;;;;;;;;;;;;5071533;28;19955;-70
2023/09/24 16:06:42;;;;;;;;;;;;;;;;;;5071908;28;19909;-68
2023/09/24 16:09:08;;;;;;;;;;;;;;;;;;5070546;28;19912;-69
2023/09/24 16:11:34;;;;;;;;;;;;;;;;;;5071755;28;20261;-69
2023/09/24 16:13:59;;;;;;;;;;;;;;;;;;5071604;28;19948;-69
2023/09/24 16:16:26;;;;;;;;;;;;;;;;;;5071994;28;20335;-69
2023/09/24 16:18:53;;;;;;;;;;;;;;;;;;5070431;28;19955;-68
2023/09/24 16:21:19;;;;;;;;;;;;;;;;;;5071574;28;20497;-69
2023/09/24 16:23:45;;;;;;;;;;;;;;;;;;5071558;28;19959;-68
2023/09/24 16:26:13;;;;;;;;;;;;;;;;;;5071580;28;19999;-68
2023/09/24 16:28:39;;;;;;;;;;;;;;;;;;5071425;28;19920;-68
2023/09/24 16:31:05;;;;;;;;;;;;;;;;;;5071682;28;19909;-68
2023/09/24 16:33:30;;;;;;;;;;;;;;;;;;5071662;28;20268;-68
2023/09/24 16:35:56;;;;;;;;;;;;;;;;;;5071375;28;19921;-68
2023/09/24 16:38:22;;;;;;;;;;;;;;;;;;5070155;28;20334;-69
2023/09/24 16:40:48;;;;;;;;;;;;;;;;;;5071736;28;19959;-70
2023/09/24 16:43:14;;;;;;;;;;;;;;;;;;5071077;28;20003;-67
2023/09/24 16:45:40;;;;;;;;;;;;;;;;;;5071709;28;19920;-69
2023/09/24 16:48:06;;;;;;;;;;;;;;;;;;5070149;28;19912;-69
2023/09/24 16:50:32;;;;;;;;;;;;;;;;;;5070145;28;20421;-69
2023/09/24 16:52:58;;;;;;;;;;;;;;;;;;5071600;28;19908;-69